Farmington, UT

8:11 PM MDT on August 27, 2016 (GMT -0600)
Hill Air Force Base | | Change Station

Elev 4787 ft 41.12 °N, 111.97 °W | Updated 13 minutes ago

Clear
Clear
78 °F
Feels Like 78 °F
N
4
Wind Variable Wind from South

Today
High -- | Low -- °F
--% Chance of Precip.
Yesterday
High -- | Low -- °F
Precip. -- in
Pressure 29.87 in
Visibility 10.0 miles
Clouds Clear
Dew Point 26 °F
Humidity 14%
Rainfall 0.00 in
Snow Depth Not available.
6:50 AM 8:07 PM
Waning Crescent, 19% visible
METAR KHIF 280158Z AUTO 17003KT 10SM CLR 26/M03 A3003 RMK AO2 SLP115 T02581034
Pressure 29.87 in
Visibility 10.0 miles
Clouds Clear
Dew Point 26 °F
Humidity 14%
Rainfall 0.00 in
Snow Depth Not available.
6:50 AM 8:07 PM
Waning Crescent, 19% visible
METAR KHIF 280158Z AUTO 17003KT 10SM CLR 26/M03 A3003 RMK AO2 SLP115 T02581034

10-Day Weather Forecast

Almanac

Astronomy

Aug. 27, 2016 Rise Set
Actual Time
Civil Twilight
Nautical Twilight
Astronomical Twilight
Moon
Length of Visible Light
Length of Day
Tomorrow will be .
, % of the Moon is Illuminated

Today's Extremes

State Highs State Lows

Community

WunderPhotos

Upload Photos

1,935,493 photos uploaded!

WunderBlog® & News

Nearby

Air Quality

  Air Quality AQ Index Pollutant
Not available.

Snow Depth

Station Depth Elevation

Earthquake Activity

City Distance Mag. Time & Date
Minimum magnitude displayed is 2.5.

Coastal Water Temperatures

Place Temperature

Stations

Nearby Weather Stations

Station Location Temp. Windchill Dew Point Humidity Wind Precip. Elev Updated Type
                   

Watches & Warnings

There are currently no watches in effect.